Terminal Aerodrome Forecast
Issued by NWS

Home | Current Version | Previous Version | Text Only | Print | Product List | Glossary On
Versions: 1 2 3 4 5 6 7 8 9 10
649
FTUS42 KTBW 251730
TAFPIE
TAF
KPIE 251730Z 2518/2618 28011KT P6SM SCT045
     FM260000 27008KT P6SM FEW050 SCT250
     FM260400 26004KT P6SM FEW250
     FM261100 18004KT P6SM FEW030 FEW250
     FM261600 22009KT P6SM FEW030 FEW250=

USA.gov is the U.S. government's official web portal to all federal, state and local government web resources and services.